Time;durP1;ratioP1;P1;durP2;ratioP2;P2;SDS_P1;SDS_P2;PMS_P1;PMS_P2;Temp;Humidity;BMP_temperature;BMP_pressure;BME280_temperature;BME280_humidity;BME280_pressure;Samples;Min_cycle;Max_cycle;Signal;HPM_P1;HPM_P2
2022/04/30 00:00:58;;;;;;;;;;;;;;;;;;5052955;28;1981;-69
2022/04/30 00:03:27;;;;;;;;;;;;;;;;;;5052580;28;1376;-69
2022/04/30 00:05:54;;;;;;;;;;;;;;;;;;5052240;28;981;-69
2022/04/30 00:08:20;;;;;;;;;;;;;;;;;;5052316;28;1020;-69
2022/04/30 00:10:46;;;;;;;;;;;;;;;;;;5050592;28;1651;-69
2022/04/30 00:13:12;;;;;;;;;;;;;;;;;;5051995;28;1286;-70
2022/04/30 00:15:39;;;;;;;;;;;;;;;;;;5052209;28;862;-69
2022/04/30 00:18:05;;;;;;;;;;;;;;;;;;5051838;28;1040;-67
2022/04/30 00:20:33;;;;;;;;;;;;;;;;;;5050567;28;1153;-69
2022/04/30 00:22:59;;;;;;;;;;;;;;;;;;5051909;28;1922;-69
2022/04/30 00:25:25;;;;;;;;;;;;;;;;;;5051412;28;1167;-70
2022/04/30 00:27:51;;;;;;;;;;;;;;;;;;5054474;28;1056;-69
2022/04/30 00:30:20;;;;;;;;;;;;;;;;;;5052727;28;838;-68
2022/04/30 00:32:46;;;;;;;;;;;;;;;;;;5051845;28;1300;-70
2022/04/30 00:35:13;;;;;;;;;;;;;;;;;;5051519;28;831;-70
2022/04/30 00:37:40;;;;;;;;;;;;;;;;;;5051627;28;1075;-69
2022/04/30 00:40:07;;;;;;;;;;;;;;;;;;5051902;28;638;-69
2022/04/30 00:42:33;;;;;;;;;;;;;;;;;;5051228;28;1914;-69
2022/04/30 00:44:59;;;;;;;;;;;;;;;;;;5051237;28;925;-69
2022/04/30 00:47:26;;;;;;;;;;;;;;;;;;5051573;28;1112;-69
2022/04/30 00:49:52;;;;;;;;;;;;;;;;;;5051333;28;1075;-69
2022/04/30 00:52:19;;;;;;;;;;;;;;;;;;5051520;28;1316;-69
2022/04/30 00:54:48;;;;;;;;;;;;;;;;;;5051241;28;1005;-70
2022/04/30 00:57:14;;;;;;;;;;;;;;;;;;5051487;28;1114;-68
2022/04/30 00:59:41;;;;;;;;;;;;;;;;;;5051402;28;1068;-69
2022/04/30 01:02:08;;;;;;;;;;;;;;;;;;5051145;28;1949;-69
2022/04/30 01:04:55;;;;;;;;;;;;;;;;;;5050788;28;1133;-69
2022/04/30 01:07:21;;;;;;;;;;;;;;;;;;5051157;28;948;-70
2022/04/30 01:09:48;;;;;;;;;;;;;;;;;;5051132;28;1063;-70
2022/04/30 01:12:15;;;;;;;;;;;;;;;;;;5051109;28;1279;-68
2022/04/30 01:14:42;;;;;;;;;;;;;;;;;;5051022;28;992;-69
2022/04/30 01:17:08;;;;;;;;;;;;;;;;;;5050741;28;1067;-69
2022/04/30 01:19:37;;;;;;;;;;;;;;;;;;5050879;28;1007;-69
2022/04/30 01:22:08;;;;;;;;;;;;;;;;;;5050702;28;1906;-69
2022/04/30 01:24:36;;;;;;;;;;;;;;;;;;5050490;28;1371;-70
2022/04/30 01:27:03;;;;;;;;;;;;;;;;;;5050280;28;1606;-69
2022/04/30 01:29:32;;;;;;;;;;;;;;;;;;5050784;28;834;-70
2022/04/30 01:37:26;;;;;;;;;;;;;;;;;;5048956;28;1246;-69
2022/04/30 01:39:58;;;;;;;;;;;;;;;;;;5050290;28;1107;-69
2022/04/30 01:42:24;;;;;;;;;;;;;;;;;;5049064;28;1981;-69
2022/04/30 01:44:50;;;;;;;;;;;;;;;;;;5049294;28;858;-69
2022/04/30 01:47:17;;;;;;;;;;;;;;;;;;5050467;28;981;-69
2022/04/30 01:49:43;;;;;;;;;;;;;;;;;;5050577;28;1063;-69
2022/04/30 01:52:09;;;;;;;;;;;;;;;;;;5050198;28;817;-69
2022/04/30 01:54:36;;;;;;;;;;;;;;;;;;5048915;28;1354;-68
2022/04/30 01:57:04;;;;;;;;;;;;;;;;;;5050428;28;1016;-69
2022/04/30 01:59:31;;;;;;;;;;;;;;;;;;5050427;28;1052;-69
2022/04/30 02:01:59;;;;;;;;;;;;;;;;;;5048725;28;1914;-68
2022/04/30 02:04:25;;;;;;;;;;;;;;;;;;5050398;28;1294;-70
2022/04/30 02:06:51;;;;;;;;;;;;;;;;;;5050323;28;854;-69
2022/04/30 02:09:18;;;;;;;;;;;;;;;;;;5045250;28;1890;-68
2022/04/30 02:11:44;;;;;;;;;;;;;;;;;;5046830;28;995;-69
2022/04/30 02:14:13;;;;;;;;;;;;;;;;;;5045230;28;1396;-69
2022/04/30 02:16:39;;;;;;;;;;;;;;;;;;5037397;28;1153;-68
2022/04/30 02:19:06;;;;;;;;;;;;;;;;;;5034740;28;1059;-69
2022/04/30 02:21:32;;;;;;;;;;;;;;;;;;5034531;28;1919;-69
2022/04/30 02:23:58;;;;;;;;;;;;;;;;;;5034230;28;1267;-69
2022/04/30 02:26:27;;;;;;;;;;;;;;;;;;5034383;28;1104;-70
2022/04/30 02:28:55;;;;;;;;;;;;;;;;;;5051351;28;1131;-69
2022/04/30 02:31:23;;;;;;;;;;;;;;;;;;5054431;28;850;-68
2022/04/30 02:33:49;;;;;;;;;;;;;;;;;;5054139;28;1295;-69
2022/04/30 02:36:15;;;;;;;;;;;;;;;;;;5053844;28;879;-69
2022/04/30 02:38:42;;;;;;;;;;;;;;;;;;5053904;28;1063;-70
2022/04/30 02:41:08;;;;;;;;;;;;;;;;;;5054021;28;1016;-70
2022/04/30 02:43:34;;;;;;;;;;;;;;;;;;5053485;28;1914;-68
2022/04/30 02:46:00;;;;;;;;;;;;;;;;;;5054033;28;1076;-68
2022/04/30 02:48:28;;;;;;;;;;;;;;;;;;5053732;28;999;-68
2022/04/30 02:50:58;;;;;;;;;;;;;;;;;;5053797;28;1075;-67
2022/04/30 02:53:25;;;;;;;;;;;;;;;;;;5053703;28;1319;-68
2022/04/30 02:55:51;;;;;;;;;;;;;;;;;;5053375;28;893;-68
2022/04/30 03:01:01;;;;;;;;;;;;;;;;;;5053648;28;980;-68
2022/04/30 03:03:51;;;;;;;;;;;;;;;;;;5064667;28;1907;-68
2022/04/30 03:06:17;;;;;;;;;;;;;;;;;;5033450;28;936;-68
2022/04/30 03:08:44;;;;;;;;;;;;;;;;;;5033568;28;995;-68
2022/04/30 03:11:12;;;;;;;;;;;;;;;;;;5033318;28;1114;-68
2022/04/30 03:13:38;;;;;;;;;;;;;;;;;;5033449;28;1296;-68
2022/04/30 03:21:44;;;;;;;;;;;;;;;;;;5053039;28;1283;-69
2022/04/30 03:24:10;;;;;;;;;;;;;;;;;;5052883;28;1994;-68
2022/04/30 03:26:36;;;;;;;;;;;;;;;;;;5052649;28;993;-67
2022/04/30 03:29:03;;;;;;;;;;;;;;;;;;5053201;28;936;-68
2022/04/30 03:31:30;;;;;;;;;;;;;;;;;;5052972;28;933;-68
2022/04/30 03:33:56;;;;;;;;;;;;;;;;;;5053000;28;1306;-68
2022/04/30 03:36:22;;;;;;;;;;;;;;;;;;5051254;28;1162;-68
2022/04/30 03:38:50;;;;;;;;;;;;;;;;;;5059422;23;4121;-71
2022/04/30 03:41:16;;;;;;;;;;;;;;;;;;5031205;28;1061;-71
2022/04/30 03:43:42;;;;;;;;;;;;;;;;;;5031857;28;1918;-71
2022/04/30 03:46:09;;;;;;;;;;;;;;;;;;5032186;28;1060;-71
2022/04/30 03:48:35;;;;;;;;;;;;;;;;;;5032885;28;1494;-72
2022/04/30 03:51:01;;;;;;;;;;;;;;;;;;5032516;28;724;-72
2022/04/30 03:53:27;;;;;;;;;;;;;;;;;;5032492;28;1059;-72
2022/04/30 03:55:56;;;;;;;;;;;;;;;;;;5032539;28;1212;-72
2022/04/30 03:58:23;;;;;;;;;;;;;;;;;;5032397;28;1411;-72
2022/04/30 04:00:49;;;;;;;;;;;;;;;;;;5032491;28;1029;-71
2022/04/30 04:03:15;;;;;;;;;;;;;;;;;;5032467;28;1914;-72
2022/04/30 04:05:41;;;;;;;;;;;;;;;;;;5012812;28;1210;-73
2022/04/30 04:08:11;;;;;;;;;;;;;;;;;;5012457;28;1063;-72
2022/04/30 04:10:38;;;;;;;;;;;;;;;;;;5012489;28;1394;-72
2022/04/30 04:18:29;;;;;;;;;;;;;;;;;;5012087;28;1247;-72
2022/04/30 04:20:56;;;;;;;;;;;;;;;;;;5012195;28;952;-72
2022/04/30 04:23:22;;;;;;;;;;;;;;;;;;5010939;28;1922;-72
2022/04/30 04:26:00;;;;;;;;;;;;;;;;;;5012239;28;799;-72
2022/04/30 04:28:27;;;;;;;;;;;;;;;;;;5012048;28;1350;-72
2022/04/30 04:30:54;;;;;;;;;;;;;;;;;;5011218;28;1119;-72
2022/04/30 04:33:20;;;;;;;;;;;;;;;;;;5012096;28;838;-72
2022/04/30 04:35:47;;;;;;;;;;;;;;;;;;5011524;28;823;-72
2022/04/30 04:38:13;;;;;;;;;;;;;;;;;;5010561;28;1331;-72
2022/04/30 04:40:39;;;;;;;;;;;;;;;;;;5011796;28;1415;-73
2022/04/30 04:43:06;;;;;;;;;;;;;;;;;;5011434;28;1969;-72
2022/04/30 04:45:34;;;;;;;;;;;;;;;;;;5012203;28;1052;-73
2022/04/30 04:48:00;;;;;;;;;;;;;;;;;;5011809;28;909;-72
2022/04/30 04:50:26;;;;;;;;;;;;;;;;;;5011754;28;1295;-72
2022/04/30 04:52:53;;;;;;;;;;;;;;;;;;5010265;28;1095;-72
2022/04/30 04:55:19;;;;;;;;;;;;;;;;;;5011945;28;1115;-72
2022/04/30 04:57:45;;;;;;;;;;;;;;;;;;5011673;28;779;-72
2022/04/30 05:00:12;;;;;;;;;;;;;;;;;;5011793;28;1334;-73
2022/04/30 05:02:39;;;;;;;;;;;;;;;;;;5011531;28;1977;-72
2022/04/30 05:05:06;;;;;;;;;;;;;;;;;;5026058;28;1179;-72
2022/04/30 05:07:32;;;;;;;;;;;;;;;;;;5031004;28;816;-73
2022/04/30 05:09:58;;;;;;;;;;;;;;;;;;5031213;28;1377;-72
2022/04/30 05:12:24;;;;;;;;;;;;;;;;;;5031272;28;1063;-72
2022/04/30 05:14:53;;;;;;;;;;;;;;;;;;5030956;28;1526;-73
2022/04/30 05:17:19;;;;;;;;;;;;;;;;;;5030940;28;1163;-72
2022/04/30 05:19:46;;;;;;;;;;;;;;;;;;5030827;28;1398;-72
2022/04/30 05:22:14;;;;;;;;;;;;;;;;;;5031201;28;1187;-72
2022/04/30 05:24:40;;;;;;;;;;;;;;;;;;5030663;28;1910;-73
2022/04/30 05:27:08;;;;;;;;;;;;;;;;;;5030824;28;972;-73
2022/04/30 05:29:34;;;;;;;;;;;;;;;;;;5030978;28;1385;-73
2022/04/30 05:32:00;;;;;;;;;;;;;;;;;;5046165;28;1331;-70
2022/04/30 05:34:27;;;;;;;;;;;;;;;;;;5045958;28;1174;-73
2022/04/30 05:36:55;;;;;;;;;;;;;;;;;;5045505;28;1166;-72
2022/04/30 05:39:21;;;;;;;;;;;;;;;;;;5045989;28;1339;-73
2022/04/30 05:41:47;;;;;;;;;;;;;;;;;;5031591;28;1091;-72
2022/04/30 05:44:13;;;;;;;;;;;;;;;;;;5046037;28;1930;-72
2022/04/30 05:46:39;;;;;;;;;;;;;;;;;;5029528;28;1054;-71
2022/04/30 05:49:06;;;;;;;;;;;;;;;;;;5030600;28;1345;-73
2022/04/30 05:51:32;;;;;;;;;;;;;;;;;;5030712;28;1403;-73
2022/04/30 05:53:59;;;;;;;;;;;;;;;;;;5045193;28;1480;-73
2022/04/30 05:56:27;;;;;;;;;;;;;;;;;;5030667;28;873;-72
2022/04/30 05:58:54;;;;;;;;;;;;;;;;;;5045458;28;1322;-72
2022/04/30 06:01:20;;;;;;;;;;;;;;;;;;5030638;28;1051;-72
2022/04/30 06:03:46;;;;;;;;;;;;;;;;;;5029783;28;1914;-72
2022/04/30 06:06:12;;;;;;;;;;;;;;;;;;5030449;28;743;-72
2022/04/30 06:08:38;;;;;;;;;;;;;;;;;;5030667;28;1310;-73
2022/04/30 06:11:06;;;;;;;;;;;;;;;;;;5030272;28;817;-73
2022/04/30 06:13:32;;;;;;;;;;;;;;;;;;5030237;28;946;-72
2022/04/30 06:15:58;;;;;;;;;;;;;;;;;;5030284;28;1072;-72
2022/04/30 06:18:25;;;;;;;;;;;;;;;;;;5030411;28;1397;-72
2022/04/30 06:20:51;;;;;;;;;;;;;;;;;;5030482;28;1092;-72
2022/04/30 06:23:17;;;;;;;;;;;;;;;;;;5030416;28;2034;-73
2022/04/30 06:25:45;;;;;;;;;;;;;;;;;;5030023;28;811;-72
2022/04/30 06:28:13;;;;;;;;;;;;;;;;;;5030093;28;728;-72
2022/04/30 06:30:39;;;;;;;;;;;;;;;;;;5030312;28;1404;-72
2022/04/30 06:33:05;;;;;;;;;;;;;;;;;;5030378;28;826;-73
2022/04/30 06:35:32;;;;;;;;;;;;;;;;;;5030223;28;834;-72
2022/04/30 06:37:58;;;;;;;;;;;;;;;;;;5028876;28;1129;-72
2022/04/30 06:40:24;;;;;;;;;;;;;;;;;;5028880;28;1307;-72
2022/04/30 06:42:50;;;;;;;;;;;;;;;;;;5030107;28;1910;-73
2022/04/30 06:45:18;;;;;;;;;;;;;;;;;;5029105;28;1356;-73
2022/04/30 06:47:44;;;;;;;;;;;;;;;;;;5029956;28;956;-73
2022/04/30 06:50:10;;;;;;;;;;;;;;;;;;5029021;28;1310;-73
2022/04/30 06:57:06;;;;;;;;;;;;;;;;;;5030198;28;853;-72
2022/04/30 06:58:07;;;;;;;;;;;;;;;;;;5030757;28;1056;-72
2022/04/30 07:03:24;;;;;;;;;;;;;;;;;;5033599;28;1987;-73
2022/04/30 07:05:50;;;;;;;;;;;;;;;;;;5013570;28;1075;-73
2022/04/30 07:08:17;;;;;;;;;;;;;;;;;;5013799;28;1358;-72
2022/04/30 07:10:43;;;;;;;;;;;;;;;;;;5013993;28;1063;-73
2022/04/30 07:13:09;;;;;;;;;;;;;;;;;;5013994;28;984;-73
2022/04/30 07:15:36;;;;;;;;;;;;;;;;;;5013651;28;1123;-73
2022/04/30 07:18:03;;;;;;;;;;;;;;;;;;5012125;28;1263;-73
2022/04/30 07:20:29;;;;;;;;;;;;;;;;;;5013510;28;1319;-73
2022/04/30 07:22:55;;;;;;;;;;;;;;;;;;5018643;28;1480;-73
2022/04/30 07:25:21;;;;;;;;;;;;;;;;;;5033200;28;1914;-73
2022/04/30 07:27:48;;;;;;;;;;;;;;;;;;5032979;28;953;-73
2022/04/30 07:30:14;;;;;;;;;;;;;;;;;;5048606;28;1388;-72
2022/04/30 07:32:41;;;;;;;;;;;;;;;;;;5033110;28;1122;-73
2022/04/30 07:35:08;;;;;;;;;;;;;;;;;;5032729;28;834;-73
2022/04/30 07:37:34;;;;;;;;;;;;;;;;;;5032885;28;779;-73
2022/04/30 07:40:01;;;;;;;;;;;;;;;;;;5032795;28;1342;-73
2022/04/30 07:42:27;;;;;;;;;;;;;;;;;;5033063;28;1055;-73
2022/04/30 07:44:59;;;;;;;;;;;;;;;;;;5047772;28;1975;-72
2022/04/30 07:47:25;;;;;;;;;;;;;;;;;;5032594;28;1008;-73
2022/04/30 07:49:53;;;;;;;;;;;;;;;;;;5032771;28;1312;-73
2022/04/30 07:52:19;;;;;;;;;;;;;;;;;;5032866;28;1071;-72
2022/04/30 07:54:45;;;;;;;;;;;;;;;;;;5031886;28;930;-73
2022/04/30 07:57:11;;;;;;;;;;;;;;;;;;5032549;28;940;-73
2022/04/30 07:59:38;;;;;;;;;;;;;;;;;;5032689;28;1516;-73
2022/04/30 08:02:05;;;;;;;;;;;;;;;;;;5032475;28;786;-73
2022/04/30 08:04:31;;;;;;;;;;;;;;;;;;5031934;28;2005;-73
2022/04/30 08:06:59;;;;;;;;;;;;;;;;;;5030936;28;2425;-72
2022/04/30 08:09:25;;;;;;;;;;;;;;;;;;5031379;28;1374;-73
2022/04/30 08:11:51;;;;;;;;;;;;;;;;;;5028766;28;2113;-73
2022/04/30 08:14:18;;;;;;;;;;;;;;;;;;5028175;28;1102;-73
2022/04/30 08:16:44;;;;;;;;;;;;;;;;;;5012065;28;791;-73
2022/04/30 08:19:10;;;;;;;;;;;;;;;;;;5012502;28;1305;-73
2022/04/30 08:21:37;;;;;;;;;;;;;;;;;;5011022;28;1213;-72
2022/04/30 08:24:06;;;;;;;;;;;;;;;;;;5012115;28;1922;-71
2022/04/30 08:26:32;;;;;;;;;;;;;;;;;;5010717;28;1301;-72
2022/04/30 08:28:58;;;;;;;;;;;;;;;;;;5012099;28;1435;-73
2022/04/30 08:31:24;;;;;;;;;;;;;;;;;;5012189;28;1123;-72
2022/04/30 08:33:51;;;;;;;;;;;;;;;;;;5012058;28;756;-73
2022/04/30 08:36:18;;;;;;;;;;;;;;;;;;5011931;28;936;-73
2022/04/30 08:38:44;;;;;;;;;;;;;;;;;;5010653;28;1454;-73
2022/04/30 08:41:12;;;;;;;;;;;;;;;;;;5011591;28;1293;-73
2022/04/30 08:43:38;;;;;;;;;;;;;;;;;;5011727;28;1924;-73
2022/04/30 08:46:05;;;;;;;;;;;;;;;;;;5010432;28;1241;-71
2022/04/30 08:48:31;;;;;;;;;;;;;;;;;;5011792;28;1420;-72
2022/04/30 08:50:57;;;;;;;;;;;;;;;;;;5010169;28;1109;-73
2022/04/30 08:53:23;;;;;;;;;;;;;;;;;;5010613;28;1156;-73
2022/04/30 08:55:49;;;;;;;;;;;;;;;;;;5011292;28;1284;-73
2022/04/30 08:58:17;;;;;;;;;;;;;;;;;;5011546;28;997;-73
2022/04/30 09:00:44;;;;;;;;;;;;;;;;;;5011410;28;973;-73
2022/04/30 09:03:13;;;;;;;;;;;;;;;;;;5011730;28;937;-72
2022/04/30 09:05:39;;;;;;;;;;;;;;;;;;5011416;28;1968;-71
2022/04/30 09:08:06;;;;;;;;;;;;;;;;;;5011066;28;960;-73
2022/04/30 09:10:33;;;;;;;;;;;;;;;;;;5011186;28;1406;-72
2022/04/30 09:13:06;;;;;;;;;;;;;;;;;;5011317;28;1115;-72
2022/04/30 09:15:34;;;;;;;;;;;;;;;;;;5011410;28;1052;-73
2022/04/30 09:18:00;;;;;;;;;;;;;;;;;;5010970;28;998;-73
2022/04/30 09:20:27;;;;;;;;;;;;;;;;;;5010746;28;1381;-72
2022/04/30 09:22:53;;;;;;;;;;;;;;;;;;5010037;28;1231;-73
2022/04/30 09:25:19;;;;;;;;;;;;;;;;;;5021561;28;1914;-73
2022/04/30 09:27:48;;;;;;;;;;;;;;;;;;5045945;28;1119;-73
2022/04/30 09:30:15;;;;;;;;;;;;;;;;;;5030102;28;1287;-72
2022/04/30 09:32:42;;;;;;;;;;;;;;;;;;5030745;28;1103;-73
2022/04/30 09:38:01;;;;;;;;;;;;;;;;;;5030596;28;842;-72
2022/04/30 09:40:27;;;;;;;;;;;;;;;;;;5051634;23;3793;-71
2022/04/30 09:42:53;;;;;;;;;;;;;;;;;;5011453;28;1182;-72
2022/04/30 09:45:24;;;;;;;;;;;;;;;;;;5010302;28;1914;-71
2022/04/30 09:47:53;;;;;;;;;;;;;;;;;;5010573;28;1075;-72
2022/04/30 09:55:49;;;;;;;;;;;;;;;;;;5010627;28;962;-71
2022/04/30 09:58:16;;;;;;;;;;;;;;;;;;5010042;28;997;-70
2022/04/30 10:00:42;;;;;;;;;;;;;;;;;;5010372;28;1411;-69
2022/04/30 10:03:10;;;;;;;;;;;;;;;;;;5011560;28;878;-71
2022/04/30 10:05:36;;;;;;;;;;;;;;;;;;5010871;28;1918;-71
2022/04/30 10:08:03;;;;;;;;;;;;;;;;;;5009620;28;894;-71
2022/04/30 10:10:29;;;;;;;;;;;;;;;;;;5008967;28;1285;-70
2022/04/30 10:12:56;;;;;;;;;;;;;;;;;;5010550;28;886;-71
2022/04/30 10:15:22;;;;;;;;;;;;;;;;;;5008930;28;1119;-71
2022/04/30 10:17:52;;;;;;;;;;;;;;;;;;5010076;28;1064;-71
2022/04/30 10:20:29;;;;;;;;;;;;;;;;;;5010729;28;1311;-70
2022/04/30 10:22:55;;;;;;;;;;;;;;;;;;5010541;28;763;-71
2022/04/30 10:25:31;;;;;;;;;;;;;;;;;;5010269;28;1975;-70
2022/04/30 10:27:57;;;;;;;;;;;;;;;;;;5009883;28;1076;-70
2022/04/30 10:30:24;;;;;;;;;;;;;;;;;;5010251;28;1299;-70
2022/04/30 10:33:00;;;;;;;;;;;;;;;;;;5011050;28;1075;-71
2022/04/30 10:35:31;;;;;;;;;;;;;;;;;;5013502;28;771;-71
2022/04/30 10:38:08;;;;;;;;;;;;;;;;;;5013650;28;1102;-72
2022/04/30 10:40:38;;;;;;;;;;;;;;;;;;5013833;28;1322;-71
2022/04/30 10:43:05;;;;;;;;;;;;;;;;;;5014265;28;723;-71
2022/04/30 10:45:31;;;;;;;;;;;;;;;;;;5013664;28;1981;-70
2022/04/30 10:47:59;;;;;;;;;;;;;;;;;;5013494;28;1123;-70
2022/04/30 10:50:25;;;;;;;;;;;;;;;;;;5013646;28;1372;-71
2022/04/30 10:52:54;;;;;;;;;;;;;;;;;;5013673;28;1134;-70
2022/04/30 10:55:21;;;;;;;;;;;;;;;;;;5013684;28;1088;-71
2022/04/30 10:57:47;;;;;;;;;;;;;;;;;;5013227;28;839;-69
2022/04/30 11:00:14;;;;;;;;;;;;;;;;;;5013858;28;1395;-70
2022/04/30 11:02:40;;;;;;;;;;;;;;;;;;5013638;28;862;-70
2022/04/30 11:05:17;;;;;;;;;;;;;;;;;;5013753;28;1914;-70
2022/04/30 11:07:43;;;;;;;;;;;;;;;;;;5013214;28;778;-70
2022/04/30 11:10:11;;;;;;;;;;;;;;;;;;5013250;28;1307;-71
2022/04/30 11:12:38;;;;;;;;;;;;;;;;;;5013144;28;1001;-71
2022/04/30 11:15:04;;;;;;;;;;;;;;;;;;5013502;28;1072;-72
2022/04/30 11:17:30;;;;;;;;;;;;;;;;;;5013288;28;965;-70
2022/04/30 11:19:56;;;;;;;;;;;;;;;;;;5013362;28;1309;-71
2022/04/30 11:22:23;;;;;;;;;;;;;;;;;;5014390;28;1515;-72
2022/04/30 11:24:49;;;;;;;;;;;;;;;;;;5014308;28;1969;-71
2022/04/30 11:27:17;;;;;;;;;;;;;;;;;;5012767;28;1068;-70
2022/04/30 11:29:49;;;;;;;;;;;;;;;;;;5012977;28;1405;-71
2022/04/30 11:32:19;;;;;;;;;;;;;;;;;;5012712;28;1063;-70
2022/04/30 11:34:45;;;;;;;;;;;;;;;;;;5012974;28;1193;-70
2022/04/30 11:37:12;;;;;;;;;;;;;;;;;;5012765;28;822;-71
2022/04/30 11:39:38;;;;;;;;;;;;;;;;;;5012662;28;1314;-70
2022/04/30 11:42:04;;;;;;;;;;;;;;;;;;5013051;28;1278;-70
2022/04/30 11:44:32;;;;;;;;;;;;;;;;;;5012765;28;1921;-71
2022/04/30 11:46:58;;;;;;;;;;;;;;;;;;5012652;28;1083;-72
2022/04/30 11:49:25;;;;;;;;;;;;;;;;;;5012695;28;1318;-72
2022/04/30 11:51:51;;;;;;;;;;;;;;;;;;5012721;28;930;-71
2022/04/30 11:54:18;;;;;;;;;;;;;;;;;;5012512;28;921;-70
2022/04/30 11:56:44;;;;;;;;;;;;;;;;;;5012273;28;1120;-70
2022/04/30 11:59:11;;;;;;;;;;;;;;;;;;5012895;28;1396;-70
2022/04/30 12:01:39;;;;;;;;;;;;;;;;;;5012253;28;1076;-72
2022/04/30 12:04:08;;;;;;;;;;;;;;;;;;5012207;28;1076;-71
2022/04/30 12:06:34;;;;;;;;;;;;;;;;;;5011819;28;1980;-71
2022/04/30 12:09:00;;;;;;;;;;;;;;;;;;5011292;28;1160;-69
2022/04/30 12:11:27;;;;;;;;;;;;;;;;;;5012173;28;1415;-69
2022/04/30 12:14:00;;;;;;;;;;;;;;;;;;5011982;28;1096;-70
2022/04/30 12:16:26;;;;;;;;;;;;;;;;;;5011946;28;882;-70
2022/04/30 12:24:43;;;;;;;;;;;;;;;;;;5011817;28;756;-71
2022/04/30 12:27:10;;;;;;;;;;;;;;;;;;5011882;28;1075;-71
2022/04/30 12:29:36;;;;;;;;;;;;;;;;;;5012094;28;1474;-71
2022/04/30 12:32:03;;;;;;;;;;;;;;;;;;5012298;28;945;-70
2022/04/30 12:34:36;;;;;;;;;;;;;;;;;;5012021;28;1016;-71
2022/04/30 12:37:03;;;;;;;;;;;;;;;;;;5011313;28;1012;-70
2022/04/30 12:39:29;;;;;;;;;;;;;;;;;;5011649;28;1412;-69
2022/04/30 12:41:57;;;;;;;;;;;;;;;;;;5011803;28;606;-69
2022/04/30 12:44:24;;;;;;;;;;;;;;;;;;5011598;28;1011;-68
2022/04/30 12:46:50;;;;;;;;;;;;;;;;;;5011308;28;1985;-70
2022/04/30 12:49:16;;;;;;;;;;;;;;;;;;5011567;28;1397;-70
2022/04/30 12:51:45;;;;;;;;;;;;;;;;;;5011599;28;1044;-70
2022/04/30 12:54:12;;;;;;;;;;;;;;;;;;5011577;28;1091;-70
2022/04/30 12:56:38;;;;;;;;;;;;;;;;;;5010682;28;1004;-69
2022/04/30 12:59:04;;;;;;;;;;;;;;;;;;5011379;28;917;-69
2022/04/30 13:01:31;;;;;;;;;;;;;;;;;;5011194;28;1331;-69
2022/04/30 13:03:57;;;;;;;;;;;;;;;;;;5009999;28;1354;-70
2022/04/30 13:06:23;;;;;;;;;;;;;;;;;;5010898;28;1984;-68
2022/04/30 13:14:19;;;;;;;;;;;;;;;;;;5011548;28;918;-69
2022/04/30 13:16:45;;;;;;;;;;;;;;;;;;5013470;28;1456;-68
2022/04/30 13:19:11;;;;;;;;;;;;;;;;;;5011315;28;1330;-70
2022/04/30 13:21:37;;;;;;;;;;;;;;;;;;5011356;28;1064;-70
2022/04/30 13:24:05;;;;;;;;;;;;;;;;;;5010789;28;1123;-70
2022/04/30 13:26:32;;;;;;;;;;;;;;;;;;5010678;28;1984;-70
2022/04/30 13:28:58;;;;;;;;;;;;;;;;;;5011139;28;1064;-70
2022/04/30 13:31:25;;;;;;;;;;;;;;;;;;5010813;28;1379;-71
2022/04/30 13:33:51;;;;;;;;;;;;;;;;;;5009716;28;1124;-69
2022/04/30 13:36:17;;;;;;;;;;;;;;;;;;5010699;28;1080;-71
2022/04/30 13:38:45;;;;;;;;;;;;;;;;;;5009492;28;1433;-69
2022/04/30 13:41:12;;;;;;;;;;;;;;;;;;5010582;28;1317;-68
2022/04/30 13:43:39;;;;;;;;;;;;;;;;;;5010308;28;853;-71
2022/04/30 13:46:05;;;;;;;;;;;;;;;;;;5010664;28;1914;-71
2022/04/30 13:48:33;;;;;;;;;;;;;;;;;;5010771;28;1067;-71
2022/04/30 13:51:00;;;;;;;;;;;;;;;;;;5010601;28;1388;-71
2022/04/30 13:53:27;;;;;;;;;;;;;;;;;;5010530;28;890;-72
2022/04/30 13:55:53;;;;;;;;;;;;;;;;;;5010651;28;823;-71
2022/04/30 13:58:20;;;;;;;;;;;;;;;;;;5010383;28;1111;-71
2022/04/30 14:00:47;;;;;;;;;;;;;;;;;;5010525;28;1369;-70
2022/04/30 14:03:13;;;;;;;;;;;;;;;;;;5009028;28;1294;-70
2022/04/30 14:05:39;;;;;;;;;;;;;;;;;;5010179;28;1915;-70
2022/04/30 14:08:05;;;;;;;;;;;;;;;;;;5011570;28;787;-71
2022/04/30 14:10:32;;;;;;;;;;;;;;;;;;5014661;28;1972;-72
2022/04/30 14:14:55;;;;;;;;;;;;;;;;;;5029207;28;1363;-72
2022/04/30 14:15:45;;;;;;;;;;;;;;;;;;5030326;28;1207;-71
2022/04/30 14:18:19;;;;;;;;;;;;;;;;;;5033945;28;1118;-71
2022/04/30 14:20:45;;;;;;;;;;;;;;;;;;5034183;28;1403;-71
2022/04/30 14:23:12;;;;;;;;;;;;;;;;;;5032841;28;1000;-70
2022/04/30 14:25:38;;;;;;;;;;;;;;;;;;5034231;28;1914;-71
2022/04/30 14:28:05;;;;;;;;;;;;;;;;;;5034005;28;1148;-71
2022/04/30 14:30:33;;;;;;;;;;;;;;;;;;5034133;28;1394;-71
2022/04/30 14:33:01;;;;;;;;;;;;;;;;;;5033936;28;1095;-70
2022/04/30 14:35:27;;;;;;;;;;;;;;;;;;5033610;28;715;-70
2022/04/30 14:37:53;;;;;;;;;;;;;;;;;;5033677;28;1060;-70
2022/04/30 14:40:20;;;;;;;;;;;;;;;;;;5033547;28;1281;-69
2022/04/30 14:42:47;;;;;;;;;;;;;;;;;;5032606;28;1387;-71
2022/04/30 14:45:14;;;;;;;;;;;;;;;;;;5033659;28;980;-71
2022/04/30 14:47:41;;;;;;;;;;;;;;;;;;5033435;28;1906;-71
2022/04/30 14:50:09;;;;;;;;;;;;;;;;;;5033532;28;1380;-69
2022/04/30 14:52:35;;;;;;;;;;;;;;;;;;5033533;28;778;-70
2022/04/30 14:55:03;;;;;;;;;;;;;;;;;;5034256;28;1076;-70
2022/04/30 14:57:29;;;;;;;;;;;;;;;;;;5033130;28;1048;-70
2022/04/30 14:59:55;;;;;;;;;;;;;;;;;;5032246;28;1366;-72
2022/04/30 15:02:21;;;;;;;;;;;;;;;;;;5033253;28;1119;-71
2022/04/30 15:04:47;;;;;;;;;;;;;;;;;;5033456;28;913;-72
2022/04/30 15:07:15;;;;;;;;;;;;;;;;;;5032816;28;1910;-71
2022/04/30 15:09:41;;;;;;;;;;;;;;;;;;5029822;28;1478;-70
2022/04/30 15:12:08;;;;;;;;;;;;;;;;;;5033106;28;957;-69
2022/04/30 15:14:34;;;;;;;;;;;;;;;;;;5033485;28;1119;-70
2022/04/30 15:17:00;;;;;;;;;;;;;;;;;;5032903;28;1051;-70
2022/04/30 15:19:27;;;;;;;;;;;;;;;;;;5031271;28;2389;-69
2022/04/30 15:21:53;;;;;;;;;;;;;;;;;;5032880;28;948;-69
2022/04/30 15:24:22;;;;;;;;;;;;;;;;;;5033229;28;1048;-71
2022/04/30 15:26:48;;;;;;;;;;;;;;;;;;5032710;28;1918;-68
2022/04/30 15:29:14;;;;;;;;;;;;;;;;;;5032867;28;1375;-69
2022/04/30 15:31:41;;;;;;;;;;;;;;;;;;5032770;28;1101;-69
2022/04/30 15:34:08;;;;;;;;;;;;;;;;;;5032795;28;1116;-69
2022/04/30 15:36:35;;;;;;;;;;;;;;;;;;5032617;28;1151;-72
2022/04/30 15:39:01;;;;;;;;;;;;;;;;;;5032708;28;1092;-72
2022/04/30 15:41:28;;;;;;;;;;;;;;;;;;5032495;28;1295;-71
2022/04/30 15:43:55;;;;;;;;;;;;;;;;;;5032802;28;1059;-72
2022/04/30 15:51:21;;;;;;;;;;;;;;;;;;5030972;28;1914;-71
2022/04/30 15:51:53;;;;;;;;;;;;;;;;;;5032354;28;1025;-72
2022/04/30 15:54:19;;;;;;;;;;;;;;;;;;5033911;28;913;-71
2022/04/30 15:56:47;;;;;;;;;;;;;;;;;;5032388;28;1067;-69
2022/04/30 15:59:14;;;;;;;;;;;;;;;;;;5031105;28;1348;-72
2022/04/30 16:01:41;;;;;;;;;;;;;;;;;;5031223;28;1115;-71
2022/04/30 16:04:07;;;;;;;;;;;;;;;;;;5032356;28;786;-70
2022/04/30 16:06:33;;;;;;;;;;;;;;;;;;5032085;28;1919;-72
2022/04/30 16:09:00;;;;;;;;;;;;;;;;;;5032191;28;948;-70
2022/04/30 16:11:26;;;;;;;;;;;;;;;;;;5031708;28;1318;-71
2022/04/30 16:13:55;;;;;;;;;;;;;;;;;;5032160;28;704;-71
2022/04/30 16:16:22;;;;;;;;;;;;;;;;;;5031969;28;1079;-69
2022/04/30 16:18:49;;;;;;;;;;;;;;;;;;5030807;28;941;-68
2022/04/30 16:21:15;;;;;;;;;;;;;;;;;;5031690;28;1318;-70
2022/04/30 16:23:41;;;;;;;;;;;;;;;;;;5030830;28;1036;-71
2022/04/30 16:26:11;;;;;;;;;;;;;;;;;;5031339;28;1975;-70
2022/04/30 16:28:37;;;;;;;;;;;;;;;;;;5032049;28;822;-71
2022/04/30 16:31:05;;;;;;;;;;;;;;;;;;5031092;28;1415;-71
2022/04/30 16:33:31;;;;;;;;;;;;;;;;;;5031979;28;1119;-72
2022/04/30 16:35:57;;;;;;;;;;;;;;;;;;5032236;28;795;-71
2022/04/30 16:38:24;;;;;;;;;;;;;;;;;;5031332;28;1170;-71
2022/04/30 16:40:50;;;;;;;;;;;;;;;;;;5031557;28;1514;-70
2022/04/30 16:43:16;;;;;;;;;;;;;;;;;;5031446;28;873;-69
2022/04/30 16:45:42;;;;;;;;;;;;;;;;;;5031399;28;1031;-70
2022/04/30 16:48:10;;;;;;;;;;;;;;;;;;5030991;28;1906;-69
2022/04/30 16:50:36;;;;;;;;;;;;;;;;;;5031160;28;1285;-69
2022/04/30 16:53:03;;;;;;;;;;;;;;;;;;5031381;28;1132;-70
2022/04/30 16:58:13;;;;;;;;;;;;;;;;;;5031097;28;883;-68
2022/04/30 17:00:40;;;;;;;;;;;;;;;;;;5027745;28;1388;-69
2022/04/30 17:03:06;;;;;;;;;;;;;;;;;;5031313;28;1064;-70
2022/04/30 17:05:34;;;;;;;;;;;;;;;;;;5031169;28;1068;-70
2022/04/30 17:08:00;;;;;;;;;;;;;;;;;;5030907;28;1922;-72
2022/04/30 17:10:27;;;;;;;;;;;;;;;;;;5030902;28;1316;-69
2022/04/30 17:12:53;;;;;;;;;;;;;;;;;;5031111;28;807;-70
2022/04/30 17:15:22;;;;;;;;;;;;;;;;;;5029378;28;1270;-69
2022/04/30 17:17:48;;;;;;;;;;;;;;;;;;5030726;28;1072;-70
2022/04/30 17:20:17;;;;;;;;;;;;;;;;;;5030474;28;1326;-69
2022/04/30 17:22:45;;;;;;;;;;;;;;;;;;5030863;28;751;-69
2022/04/30 17:25:13;;;;;;;;;;;;;;;;;;5030690;28;815;-70
2022/04/30 17:27:39;;;;;;;;;;;;;;;;;;5030398;28;1910;-69
2022/04/30 17:30:06;;;;;;;;;;;;;;;;;;5030575;28;1294;-67
2022/04/30 17:38:02;;;;;;;;;;;;;;;;;;5030268;28;933;-69
2022/04/30 17:40:28;;;;;;;;;;;;;;;;;;5030424;28;1367;-70
2022/04/30 17:42:55;;;;;;;;;;;;;;;;;;5030476;28;1126;-69
2022/04/30 17:45:22;;;;;;;;;;;;;;;;;;5030575;28;1063;-70
2022/04/30 17:47:48;;;;;;;;;;;;;;;;;;5028667;28;2030;-70
2022/04/30 17:50:14;;;;;;;;;;;;;;;;;;5030525;28;1399;-70
2022/04/30 17:52:40;;;;;;;;;;;;;;;;;;5030600;28;1064;-69
2022/04/30 17:55:08;;;;;;;;;;;;;;;;;;5029939;28;995;-69
2022/04/30 17:57:36;;;;;;;;;;;;;;;;;;5029915;28;881;-70
2022/04/30 18:00:02;;;;;;;;;;;;;;;;;;5030284;28;1313;-69
2022/04/30 18:02:38;;;;;;;;;;;;;;;;;;5030298;28;700;-69